EICKEIKN

Guest
Details From EICK - Cork
To EIKN - Ireland West Airport Knock
Flight Number -
Tags generated
Created
Modified
Stats Distance 125 nm / 232 km
Max Altitude 8,500 ft / 2,591 m
Waypoints 3
Social Downloads 0
Likes 0
Share VATSIM

Download

Looking for another format? Having issues loading an existing format? Contact us
Advertisement - Login to hide

Notes

Basic altitude profile: - Ascent Rate: 2500ft/min - Ascent Speed: 250kts - Cruise Altitude: 35000ft - Cruise Speed: 420kts - Descent Rate: 1500ft/min - Descent Speed: 250kts Options: - Use NATs: yes - Use PACOTS: yes - Use low airways: yes - Use high airways: yes

Route

EICK KURUM EIKN

ID Type Via Altitude Latitude Longitude Leg Dist Tot Dist Heading (true) Name
O EICK APT - 0 ft / 0 m 51.84261˚ -8.48906˚ - 0 nm - Cork
KURUM FIX - 8,500 ft / 2,591 m 52.22861˚ -8.66472˚ 24 nm 24 nm 344° / 344° -
O EIKN APT - 0 ft / 0 m 53.91031˚ -8.81847˚ 101 nm 125 nm 357° / 357° Ireland West Airport Knock

Altitude Profile

Advertisement - Login to hide

EICK

Details ICAO EICK (ORK)
Name Cork
Region Ireland
Timezone Europe/Dublin (UTC+1.0)
Stats Elevation 502 ft / 153 m (AMSL)
Location 51.842605° -8.489056°
Runways 2
Magnetic Variation 3.540° W

METAR

EICK 260300Z 32009KT 9999 FEW016 BKN045 12/11 Q1021 TEMPO BKN008

Decode

TAF

TAF EICK 252300Z 2600/2624 34012KT 9999 FEW015 TEMPO 2602/2609 5000 -RADZ BKN008 BECMG 2607/2610 06010KT BECMG 2615/2617 10010KT TEMPO 2622/2624 -SHRA BKN010 SCT018CB PROB30 TEMPO 2622/2624 3000 TSRA BKN007CB

Decode

Departure Runways

ID Width Length Bearing (true) Bearing (mag) Surface Threshold Offset Overrun Length
07 148 ft / 45 m 4,281 ft / 1,305 m 62.55° 66.09° Concrete 0 ft / 0 m 0 ft / 0 m
17 148 ft / 45 m 6,992 ft / 2,131 m 159.93° 163.47° Asphalt 0 ft / 0 m 115 ft / 35 m
25 148 ft / 45 m 4,281 ft / 1,305 m 242.57° 246.11° Concrete 0 ft / 0 m 39 ft / 12 m
35 148 ft / 45 m 6,992 ft / 2,131 m 339.94° 343.48° Asphalt 0 ft / 0 m 0 ft / 0 m

EIKN

Details ICAO EIKN (NOC)
Name Ireland West Airport Knock
Region Ireland
Timezone Europe/Dublin (UTC+1.0)
Stats Elevation 665 ft / 203 m (AMSL)
Location 53.910306° -8.818474°
Runways 1
Magnetic Variation 4.086° W

METAR

Not found

TAF

TAF EIKN 252300Z 2600/2624 33012KT 9999 FEW020 TEMPO 2600/2605 BKN010 PROB40 TEMPO 2602/2605 3000 -RADZ BKN006 BECMG 2606/2609 08010KT

Decode

Destination Runways

ID Width Length Bearing (true) Bearing (mag) Surface Threshold Offset Overrun Length
09 148 ft / 45 m 7,513 ft / 2,290 m 78.74° 82.83° Asphalt 482 ft / 147 m 0 ft / 0 m
27 148 ft / 45 m 7,513 ft / 2,290 m 258.76° 262.85° Asphalt 0 ft / 0 m 0 ft / 0 m

Approach Navaids

Runway Type Ident Frequency Range Bearing (true) Bearing (mag) Slope Elevation
27 Localiser ICK 110.70 MHz 18 nm / 33 km 258.69° 262.78° - 593 ft / 181 m (AMSL)
27 Glidescope ICK 110.70 MHz 10 nm / 19 km 258.75° 262.84° 3.00° 688 ft / 210 m (AMSL)